In Rescue
 
Open Full Screen Window  High Contrast Mode
February 24, 2020 7:16 PM EST
Weather Information
Wind Direction
  ---
Wind Speed
  00 kt (0 mph)
Wind Gust
  00 kt (0 mph)
Altimeter
29.92 in
Visibility
10 SM
Temperature
02° C
36° F
Dewpoint
-02° C
28° F
Humidity
75%
1hr Rain Fall
00.00 in.
24hr Rain Fall
00.00 in.
Sky Condition
Scattered @ 12,000 ft
VFR

METAR KIKW 250016Z AUTO 00000KT 10SM SCT120 02/M02 A2992 RMK AO2 T00221020

FAA Disclaimer: The data displayed is for advisory purposes only and is not to be used for flight planning or operations.